Nearby METAR Reports

 

KSJC - San Jose, California, USA
Distance from station: NO 14km
Uppdaterad: 2019-09-15 09:53
Klart
Klart
 Vind från NNV
Vind: NNV 13 km/h
Temperatur: 16°C
Daggpunkt: 14°C
Luftfuktighet: 88%
Barometer: 1013.2 hPa
Clouds: Klart
Visibility: 16 km
2019/09/15 07:53 KSJC 150753Z AUTO 34007KT 10SM CLR 16/14 A2992 RMK AO2 SLP131 T01560139 403060156
KNUQ - Moffett Nas/Mtn, California, USA
Distance from station: N 14km
Uppdaterad: 2019-09-15 09:56

 
Barometer: 1013.5 hPa
2019/09/15 07:56 KNUQ 150756Z A2993 RMK AO2 SLP139 PWINO $
 
KPAO - Palo Alto, California, USA
Distance from station: NNV 23km
Uppdaterad: 2019-09-15 05:47
NOT Current
Klart
Klart
 Vind från NNV
Vind: NNV 11 km/h
Temperatur: 17°C
Daggpunkt: 14°C
Luftfuktighet: 83%
Barometer: 1012.5 hPa
Clouds: Klart
Visibility: 16 km
2019/09/15 03:47 KPAO 150347Z 34006KT 10SM SKC 17/14 A2990 RMK LAST
KRHV - San Jose/Reid, California, USA
Distance from station: ONO 19km
Uppdaterad: 2019-09-15 06:52
NOT Current
Klart
Klart
 Vind från VNV
Vind: VNV 7 km/h
Temperatur: 19°C
Daggpunkt: 14°C
Luftfuktighet: 73%
Barometer: 1012.9 hPa
Clouds: Klart
Visibility: 16 km
2019/09/15 04:52 KRHV 150452Z 30004KT 10SM SKC 19/14 A2991 RMK LAST
 
KOAK - Oakland, California, USA
Distance from station: NNV 50km
Uppdaterad: 2019-09-15 09:53
Övervägande molnigt
Övervägande molnigt
 Vind från V
Vind: V 17 km/h
Temperatur: 17°C
Daggpunkt: 13°C
Luftfuktighet: 77%
Barometer: 1013.2 hPa
Clouds: Övervägande molnigt
Visibility: 16 km
Cloud details: Övervägande molnigt 305 m
2019/09/15 07:53 KOAK 150753Z 26009KT 10SM BKN010 17/13 A2992 RMK AO2 SLP131 T01670133 402440150
KSQL - San Carlos Airpo, California, USA
Distance from station: NV 34km
Uppdaterad: 2019-09-15 05:49
NOT Current
Klart
Klart
 Vind från VNV
Vind: VNV 11 km/h
Temperatur: 18°C
Daggpunkt: 12°C
Luftfuktighet: 68%
Barometer: 1012.5 hPa
Clouds: Klart
Visibility: 16 km
2019/09/15 03:49 KSQL 150349Z 30006KT 10SM SKC 18/12 A2990 RMK LAST
 
KSFO - San Francisco, California, USA
Distance from station: NV 49km
Uppdaterad: 2019-09-15 09:56
Genommulet
Genommulet
 Vind från V
Vind: V 22 km/h
Temperatur: 17°C
Daggpunkt: 13°C
Luftfuktighet: 77%
Barometer: 1012.9 hPa
Clouds: Genommulet
Visibility: 16 km
Cloud details: Few Clouds 213 m
Genommulet 305 m
2019/09/15 07:56 KSFO 150756Z 27012KT 10SM FEW007 OVC010 17/13 A2991 RMK AO2 SLP129 T01720133 402390161
KE16 - San Martin, California, USA
Distance from station: OSO 43km
Uppdaterad: 2019-08-05 19:10
NOT Current
Klart
Klart
 Vind från OSO
Vind: OSO 19 km/h
Temperatur: 19°C
Daggpunkt: 14°C
Luftfuktighet: 73%
Barometer: 1016.9 hPa
Clouds: Klart
Visibility: 16 km
2019/08/05 17:10 KE16 051710Z AUTO 12010KT 10SM CLR 19/14 A3003 RMK AO2
 
KWVI - Watsonville, California, USA
Distance from station: SSO 44km
Uppdaterad: 2019-09-13 23:53
NOT Current
Klart
Klart
 Vind från V
Vind: V 17 km/h
Temperatur: 37°C
Daggpunkt: 4°C
Luftfuktighet: 13%
Barometer: 1013.5 hPa
Clouds: Klart
Visibility: 16 km
2019/09/13 21:53 KWVI 132153Z AUTO 27009KT 10SM CLR 37/04 A2993 RMK AO2 SLP133 T03670039
KHAF - Half Moon Bay, California, USA
Distance from station: VNV 50km
Uppdaterad: 2019-09-15 10:15
Genommulet
Genommulet
 
Temperatur: 15°C
Daggpunkt: 14°C
Luftfuktighet: 94%
Barometer: 1013.9 hPa
Clouds: Genommulet
Visibility: 11 km
Cloud details: Genommulet 183 m
2019/09/15 08:15 KHAF 150815Z AUTO 7SM OVC006 15/14 A2994 RMK AO2
 
KHWD - Hayward, California, USA
Distance from station: N 44km
Uppdaterad: 2019-09-15 09:54
Genommulet
Genommulet
 Vind från V
Vind: V 13 km/h
Temperatur: 17°C
Daggpunkt: 14°C
Luftfuktighet: 83%
Barometer: 1013.2 hPa
Clouds: Genommulet
Visibility: 16 km
Cloud details: Genommulet 305 m
2019/09/15 07:54 KHWD 150754Z AUTO 26007KT 10SM OVC010 17/14 A2992 RMK AO2 SLP141 T01670139 402610161
KLVK - Livermore, California, USA
Distance from station: NNO 51km
Uppdaterad: 2019-09-15 09:53
Klart
Klart
 Vind från NV
Vind: NV 13 km/h
Temperatur: 16°C
Daggpunkt: 13°C
Luftfuktighet: 83%
Barometer: 1012.5 hPa
Clouds: Klart
Visibility: 16 km
2019/09/15 07:53 KLVK 150753Z AUTO 31007KT 10SM CLR 16/13 A2990 RMK AO2 SLP119 T01560128 403670139